Airfield :
LOGIN :

Register | Disclaimer

   EN    FR    IT 

 










Legend :    VFR   Marginal VFR   IFR   Intensive IFR   Very Intensive IFR
Visi :
Ceiling :
>= 8 km
>= 3000ft
5 to 8 km
1000 to 3000 ft
1500m to 5 km
500 to 1000 ft
800 to 1500m
200 to 500 ft
< 800m
< 200 ft
Symbols :   Thunderstorms  Fog  Heavy snow  Heavy precipitations  Wind > 20 kt
SIGMETs :     Misc.  Thunderstorms  Icing  Turbulence  Mountain Waves  Volcanic Ashes






- Airport Elevation : 1411 ft
- IATA code : GVA


LSGG - Genève Cointrin

CURRENT METAR :
  • 261120Z VRB02KT 2000 BR FEW002 OVC004 M01/M01 Q1032 TEMPO 3500

EXPIRED METARs :
  • 261050Z VRB02KT 1600 BCFG SCT002 OVC003 M01/M02 Q1033 TEMPO 3500 BR
  • 261020Z VRB01KT 1000 R04/1400U R22/1900N FZFG SCT002 OVC003 M01/M02 Q1032 BECMG 1500
  • 260950Z VRB02KT 0900 R04/1000D R22/1700U FZFG OVC002 M01/M02 Q1033 BECMG 1500
  • 260920Z 29004KT 0700 R04/1000D R22/1700U FZFG SCT001 OVC002 M01/M02 Q1032 BECMG 1500
  • 260850Z 27003KT 250V310 0600 R04/0750D R22/1500U FZFG SCT001 OVC002 M02/M02 Q1033 NOSIG

TAF TAF LSGG
Valid from the 26 at 12:00 until the 27 at 18:00 UTC


261125Z 2612/2718 VRB02KT 1500 BR BKN005 TX03/2615Z TNM02/2706Z TX04/2706Z
BECMG 2612/2615 5000 BR SCT010
BECMG 2618/2621 3000 BR BKN004
BECMG 2621/2624 0700 FZFG VV002
BECMG 2709/2711 2000 BR BKN004
BECMG 2711/2713 5000 BR SCT010
ATIS : +41 22 417 40 81



MET'MAP, your aeronautical weather chart ! - Copyright ORBIFLY December 2007 - Disclaimer

ORBIFLY MET'MAP TEAM :

Programming & Development : Alexandra Zaïnal
Original concept : Baudouin d'Aumeries
Technical & hardware support : Manuel Goepfert
Assistance : Marc-Olivier Méhu

Contact : metmap@orbifly.com




SOURCES & CREDITS :

   NOAA